Time;durP1;ratioP1;P1;durP2;ratioP2;P2;SDS_P1;SDS_P2;PMS_P1;PMS_P2;Temp;Humidity;BMP_temperature;BMP_pressure;BME280_temperature;BME280_humidity;BME280_pressure;Samples;Min_cycle;Max_cycle;Signal;HPM_P1;HPM_P2
2021/04/22 00:00:12;;;;;;;28.98;17.27;;;153.90;2252.80;;;;;;5093549;28;20020;-67
2021/04/22 00:02:38;;;;;;;30.83;18.13;;;154.00;2252.80;;;;;;5091183;28;20069;-67
2021/04/22 00:05:28;;;;;;;27.40;18.55;;;154.00;2252.80;;;;;;5093549;28;20099;-68
2021/04/22 00:07:56;;;;;;;29.42;18.90;;;154.00;2252.80;;;;;;5084170;28;20049;-73
2021/04/22 00:10:43;;;;;;;36.08;22.17;;;154.00;2252.80;;;;;;5093412;28;20039;-67
2021/04/22 00:13:11;;;;;;;24.75;16.27;;;154.00;2252.80;;;;;;5093081;28;20541;-67
2021/04/22 00:15:37;;;;;;;30.10;18.35;;;154.00;2252.80;;;;;;5093566;28;20073;-68
2021/04/22 00:18:06;;;;;;;28.38;18.15;;;154.00;2252.80;;;;;;5093159;28;20020;-67
2021/04/22 00:20:33;;;;;;;28.95;18.02;;;153.90;2252.80;;;;;;5092858;28;20323;-67
2021/04/22 00:22:58;;;;;;;28.88;16.73;;;153.80;2252.80;;;;;;5093168;28;20493;-67
2021/04/22 00:25:24;;;;;;;27.90;17.70;;;153.80;2252.80;;;;;;5093116;28;20090;-67
2021/04/22 00:27:50;;;;;;;25.25;16.55;;;153.70;2252.80;;;;;;5092897;28;20016;-68
2021/04/22 00:30:19;;;;;;;24.10;15.25;;;153.70;2252.80;;;;;;5092970;28;20069;-68
2021/04/22 00:32:46;;;;;;;19.70;13.75;;;153.70;2252.80;;;;;;5092970;28;20069;-67
2021/04/22 00:35:13;;;;;;;20.83;13.95;;;153.70;2252.80;;;;;;5092987;28;20027;-70
2021/04/22 00:37:39;;;;;;;20.45;13.80;;;128.90;2252.80;;;;;;5093258;28;20492;-67
2021/04/22 00:40:12;;;;;;;21.17;12.45;;;128.90;2252.80;;;;;;5086311;28;20024;-72
2021/04/22 00:42:38;;;;;;;20.00;13.30;;;128.80;2252.80;;;;;;5092985;28;20016;-71
2021/04/22 00:45:05;;;;;;;22.27;14.27;;;128.80;2252.80;;;;;;5092632;28;20039;-66
2021/04/22 00:47:30;;;;;;;26.10;16.15;;;128.50;2252.80;;;;;;5092939;28;20093;-67
2021/04/22 00:49:56;;;;;;;24.75;16.40;;;128.60;2252.80;;;;;;5092669;28;20492;-66
2021/04/22 00:52:22;;;;;;;27.55;16.35;;;128.60;2252.80;;;;;;5092740;28;20052;-66
2021/04/22 00:54:48;;;;;;;26.20;16.35;;;128.60;2252.80;;;;;;5092786;28;20410;-67
2021/04/22 00:57:14;;;;;;;23.95;14.75;;;128.70;2252.80;;;;;;5092425;28;20107;-67
2021/04/22 00:59:40;;;;;;;23.85;13.63;;;128.70;2252.80;;;;;;5092548;28;20024;-66
2021/04/22 01:02:13;;;;;;;21.98;12.30;;;128.90;2252.80;;;;;;5084728;28;20027;-67
2021/04/22 01:04:39;;;;;;;19.25;11.05;;;128.90;2252.80;;;;;;5092577;28;20028;-67
2021/04/22 01:07:05;;;;;;;17.60;11.05;;;153.60;2252.80;;;;;;5091929;28;20074;-67
2021/04/22 01:09:31;;;;;;;17.35;10.38;;;153.60;2252.80;;;;;;5092190;28;20089;-67
2021/04/22 01:11:58;;;;;;;15.23;9.63;;;153.70;2252.80;;;;;;5092434;28;20494;-67
2021/04/22 01:14:24;;;;;;;16.23;9.95;;;153.70;2252.80;;;;;;5092183;28;20543;-67
2021/04/22 01:16:50;;;;;;;16.38;9.50;;;153.80;2252.80;;;;;;5092418;28;20111;-68
2021/04/22 01:19:16;;;;;;;14.35;9.23;;;153.80;2252.80;;;;;;5091579;28;20073;-67
2021/04/22 01:21:42;;;;;;;16.08;10.15;;;153.90;2252.80;;;;;;5092307;28;20032;-67
2021/04/22 01:24:09;;;;;;;20.23;11.55;;;153.90;2252.80;;;;;;5091772;28;20032;-68
2021/04/22 01:26:35;;;;;;;19.25;12.80;;;153.90;2252.80;;;;;;5091925;28;20031;-67
2021/04/22 01:29:02;;;;;;;22.80;13.85;;;153.90;2252.80;;;;;;5091857;28;20024;-66
2021/04/22 01:31:29;;;;;;;21.60;13.85;;;153.80;2252.80;;;;;;5091917;28;20025;-67
2021/04/22 01:34:00;;;;;;;19.52;12.77;;;128.80;2252.80;;;;;;5091897;28;20031;-67
2021/04/22 01:36:40;;;;;;;19.27;12.80;;;128.70;2252.80;;;;;;5091817;28;20020;-67
2021/04/22 01:39:09;;;;;;;23.52;14.68;;;128.70;2252.80;;;;;;5088235;28;20016;-68
2021/04/22 01:41:35;;;;;;;18.48;12.43;;;128.70;2252.80;;;;;;5072966;28;20381;-67
2021/04/22 01:44:02;;;;;;;24.15;12.63;;;128.60;2252.80;;;;;;5091869;28;20020;-68
2021/04/22 01:46:28;;;;;;;19.73;12.38;;;128.70;2252.80;;;;;;5091634;28;20545;-66
2021/04/22 01:48:54;;;;;;;22.60;14.35;;;128.40;2252.80;;;;;;5091222;28;20405;-66
2021/04/22 01:51:22;;;;;;;37.92;20.60;;;128.30;2252.80;;;;;;5091385;28;20483;-67
2021/04/22 01:53:49;;;;;;;28.50;16.80;;;128.20;2252.80;;;;;;5091369;28;20028;-67
2021/04/22 01:56:16;;;;;;;26.38;17.25;;;128.20;2252.80;;;;;;5091560;28;20034;-67
2021/04/22 01:58:42;;;;;;;28.27;16.15;;;128.30;2252.80;;;;;;5091465;28;20164;-67
2021/04/22 02:01:09;;;;;;;27.10;16.27;;;128.40;2252.80;;;;;;5088105;28;20546;-67
2021/04/22 02:03:35;;;;;;;27.20;16.67;;;128.60;2252.80;;;;;;5090340;28;20365;-68
2021/04/22 02:06:02;;;;;;;28.85;14.88;;;128.70;2252.80;;;;;;5091674;28;20032;-68
2021/04/22 02:08:28;;;;;;;26.17;13.77;;;128.70;2252.80;;;;;;5090929;28;20077;-68
2021/04/22 02:10:54;;;;;;;20.40;11.25;;;128.80;2252.80;;;;;;5091133;28;20024;-68
2021/04/22 02:13:21;;;;;;;17.67;10.40;;;128.90;2252.80;;;;;;5091232;28;20051;-69
2021/04/22 02:15:48;;;;;;;18.77;10.93;;;128.90;2252.80;;;;;;5091380;28;20095;-68
2021/04/22 02:18:14;;;;;;;17.55;10.93;;;153.60;2252.80;;;;;;5091244;28;20097;-68
2021/04/22 02:20:40;;;;;;;16.20;10.55;;;153.60;2252.80;;;;;;5090233;28;20477;-68
2021/04/22 02:23:08;;;;;;;16.10;9.52;;;153.60;2252.80;;;;;;5091556;28;20409;-69
2021/04/22 02:25:34;;;;;;;14.63;8.98;;;153.60;2252.80;;;;;;5091242;28;20028;-68
2021/04/22 02:28:01;;;;;;;14.25;8.82;;;153.70;2252.80;;;;;;5091031;28;20023;-68
2021/04/22 02:30:29;;;;;;;19.35;11.57;;;153.70;2252.80;;;;;;5090894;28;20025;-68
2021/04/22 02:32:55;;;;;;;18.50;11.38;;;153.60;2252.80;;;;;;5090851;28;20461;-69
2021/04/22 02:35:25;;;;;;;17.48;10.75;;;153.60;2252.80;;;;;;5091082;28;20505;-68
2021/04/22 02:37:51;;;;;;;;;;;153.60;2252.80;;;;;;5091399;28;20023;-68
2021/04/22 02:40:20;;;;;;;18.00;10.52;;;128.90;2252.80;;;;;;5086574;28;19904;-68
2021/04/22 02:42:46;;;;;;;18.98;11.85;;;128.90;2252.80;;;;;;5090968;28;20052;-68
2021/04/22 02:45:16;;;;;;;18.65;11.32;;;128.90;2252.80;;;;;;5090833;28;20492;-68
2021/04/22 02:47:42;;;;;;;19.88;11.35;;;128.90;2252.80;;;;;;5091442;28;20103;-67
2021/04/22 02:50:13;;;;;;;22.23;12.52;;;128.90;2252.80;;;;;;5062608;28;20024;-68
2021/04/22 02:52:39;;;;;;;19.95;11.45;;;128.90;2252.80;;;;;;5090902;28;20051;-68
2021/04/22 02:55:06;;;;;;;19.30;11.48;;;128.90;2252.80;;;;;;5090999;28;20020;-68
2021/04/22 02:57:32;;;;;;;16.02;10.85;;;128.90;2252.80;;;;;;5090790;28;20480;-67
2021/04/22 02:59:58;;;;;;;15.80;10.65;;;128.90;2252.80;;;;;;5090499;28;20028;-69
2021/04/22 03:02:24;;;;;;;17.48;10.48;;;153.60;2252.80;;;;;;5085955;28;20052;-68
2021/04/22 03:04:50;;;;;;;19.15;11.50;;;153.60;2252.80;;;;;;5090564;28;20131;-68
2021/04/22 03:07:15;;;;;;;22.58;12.63;;;153.60;2252.80;;;;;;5090710;28;20383;-67
2021/04/22 03:09:41;;;;;;;27.48;13.77;;;153.60;2252.80;;;;;;5090474;28;20427;-68
2021/04/22 03:12:08;;;;;;;22.70;13.65;;;153.60;2252.80;;;;;;5090664;28;20013;-68
2021/04/22 03:14:34;;;;;;;31.10;17.42;;;153.60;2252.80;;;;;;5090622;28;20032;-68
2021/04/22 03:17:00;;;;;;;31.33;17.45;;;153.60;2252.80;;;;;;5090591;28;20074;-73
2021/04/22 03:19:26;;;;;;;32.45;17.70;;;153.60;2252.80;;;;;;5090316;28;20358;-68
2021/04/22 03:21:51;;;;;;;27.95;15.75;;;153.60;2252.80;;;;;;5090580;28;20039;-68
2021/04/22 03:24:17;;;;;;;22.65;14.48;;;153.60;2252.80;;;;;;5090486;28;20020;-68
2021/04/22 03:26:43;;;;;;;22.83;14.07;;;153.60;2252.80;;;;;;5090796;28;20024;-68
2021/04/22 03:29:08;;;;;;;21.05;13.45;;;153.60;2252.80;;;;;;5090170;28;20028;-68
2021/04/22 03:31:34;;;;;;;20.08;12.60;;;153.60;2252.80;;;;;;5093152;28;20069;-68
2021/04/22 03:34:00;;;;;;;19.63;12.07;;;128.90;2252.80;;;;;;5091219;28;20057;-68
2021/04/22 03:36:25;;;;;;;18.38;12.02;;;153.60;2252.80;;;;;;5075096;28;20020;-67
2021/04/22 03:38:51;;;;;;;17.85;11.52;;;153.60;2252.80;;;;;;5093080;28;20382;-69
2021/04/22 03:41:17;;;;;;;17.45;11.55;;;153.70;2252.80;;;;;;5091035;28;20035;-69
2021/04/22 03:43:42;;;;;;;17.90;11.30;;;153.70;2252.80;;;;;;5094376;28;20028;-68
2021/04/22 03:46:08;;;;;;;15.07;10.23;;;153.70;2252.80;;;;;;5093856;28;20028;-68
2021/04/22 03:48:34;;;;;;;14.55;10.02;;;153.70;2252.80;;;;;;5094115;28;20024;-70
2021/04/22 03:50:59;;;;;;;14.65;10.15;;;153.70;2252.80;;;;;;5093944;28;20040;-68
2021/04/22 03:53:25;;;;;;;13.10;9.43;;;153.70;2252.80;;;;;;5093817;28;20024;-70
2021/04/22 03:55:52;;;;;;;16.48;10.82;;;153.80;2252.80;;;;;;5093815;28;20377;-69
2021/04/22 03:58:18;;;;;;;16.42;10.40;;;153.80;2252.80;;;;;;5093965;28;20028;-67
2021/04/22 04:00:43;;;;;;;15.65;10.27;;;153.80;2252.80;;;;;;5094144;28;20012;-68
2021/04/22 04:03:09;;;;;;;14.93;9.77;;;153.80;2252.80;;;;;;5083896;28;20104;-68
2021/04/22 04:05:35;;;;;;;15.45;9.07;;;153.80;2252.80;;;;;;5093647;28;20449;-68
2021/04/22 04:08:01;;;;;;;15.38;9.27;;;153.80;2252.80;;;;;;5093674;28;20028;-68
2021/04/22 04:10:27;;;;;;;14.10;9.43;;;153.80;2252.80;;;;;;5093341;28;20376;-68
2021/04/22 04:12:52;;;;;;;17.63;10.40;;;153.90;2252.80;;;;;;5093448;28;20024;-68
2021/04/22 04:15:18;;;;;;;19.45;11.57;;;154.00;2252.80;;;;;;5093587;28;20096;-69
2021/04/22 04:17:43;;;;;;;19.15;12.68;;;154.10;2252.80;;;;;;5093328;28;20046;-68
2021/04/22 04:20:12;;;;;;;18.00;11.90;;;154.20;2252.80;;;;;;5093056;28;20052;-69
2021/04/22 04:22:38;;;;;;;20.23;12.32;;;154.40;2252.80;;;;;;5093447;28;20438;-69
2021/04/22 04:25:08;;;;;;;20.75;12.07;;;154.50;2252.80;;;;;;5093706;28;20016;-68
2021/04/22 04:27:34;;;;;;;18.52;12.63;;;179.20;2252.80;;;;;;5092951;28;20516;-68
2021/04/22 04:30:00;;;;;;;22.70;13.35;;;179.40;2252.80;;;;;;5093008;28;20028;-69
2021/04/22 04:32:26;;;;;;;18.85;12.25;;;179.50;2252.80;;;;;;5093177;28;20020;-65
2021/04/22 04:34:51;;;;;;;17.88;12.63;;;179.70;2252.80;;;;;;5093216;28;20464;-66
2021/04/22 04:37:17;;;;;;;18.23;12.25;;;179.90;2252.80;;;;;;5093239;28;20471;-66
2021/04/22 04:39:43;;;;;;;20.17;13.40;;;180.00;2252.80;;;;;;5088717;28;20424;-66
2021/04/22 04:42:09;;;;;;;16.70;12.85;;;180.10;2252.80;;;;;;5091912;28;20480;-66
2021/04/22 04:44:36;;;;;;;14.95;11.18;;;204.90;2252.80;;;;;;5075276;28;20036;-66
2021/04/22 04:47:02;;;;;;;18.75;11.43;;;205.00;2252.80;;;;;;5075837;28;20028;-65
2021/04/22 04:49:28;;;;;;;17.58;11.07;;;205.40;2252.80;;;;;;5070532;28;20047;-66
2021/04/22 04:51:54;;;;;;;16.60;11.18;;;205.70;2252.80;;;;;;5087707;28;20044;-66
2021/04/22 04:54:20;;;;;;;18.92;12.20;;;230.60;2252.80;;;;;;5084667;28;20381;-66
2021/04/22 04:56:46;;;;;;;18.40;12.23;;;231.00;2252.80;;;;;;5086547;28;20021;-69
2021/04/22 04:59:11;;;;;;;20.77;12.95;;;231.30;2252.80;;;;;;5086115;28;20036;-68
2021/04/22 05:01:37;;;;;;;20.75;12.85;;;256.50;2252.80;;;;;;5073384;28;20033;-72
2021/04/22 05:04:04;;;;;;;20.83;12.68;;;281.60;2278.40;;;;;;5078343;28;20052;-67
2021/04/22 05:06:29;;;;;;;20.58;13.70;;;282.30;2278.40;;;;;;5076770;28;20032;-67
2021/04/22 05:08:55;;;;;;;24.63;15.15;;;307.40;2304.00;;;;;;5079467;28;20028;-67
2021/04/22 05:11:21;;;;;;;28.40;19.58;;;308.10;2252.80;;;;;;5076338;28;20039;-67
2021/04/22 05:13:47;;;;;;;25.15;17.73;;;332.90;2201.60;;;;;;5080408;28;20040;-68
2021/04/22 05:16:14;;;;;;;23.63;17.40;;;333.50;2124.80;;;;;;5082764;28;20032;-67
2021/04/22 05:18:40;;;;;;;24.88;17.35;;;358.40;2048.00;;;;;;5091987;28;20028;-67
2021/04/22 05:21:06;;;;;;;24.80;16.67;;;358.90;2022.40;;;;;;5092096;28;20468;-68
2021/04/22 05:23:32;;;;;;;22.42;16.48;;;358.90;1971.20;;;;;;5086382;28;20029;-69
2021/04/22 05:25:58;;;;;;;25.70;17.70;;;358.90;1945.60;;;;;;5072408;28;20024;-68
2021/04/22 05:28:23;;;;;;;20.58;15.75;;;359.10;1894.40;;;;;;5071396;28;20024;-69
2021/04/22 05:30:50;;;;;;;23.20;15.02;;;359.00;1945.60;;;;;;5072232;28;20039;-69
2021/04/22 05:33:16;;;;;;;23.52;15.90;;;358.90;1945.60;;;;;;5089519;28;20030;-67
2021/04/22 05:35:42;;;;;;;27.58;17.02;;;333.40;2073.60;;;;;;5087717;28;20047;-67
2021/04/22 05:38:08;;;;;;;32.33;18.65;;;308.10;2124.80;;;;;;5088359;28;20020;-69
2021/04/22 05:40:35;;;;;;;32.05;16.83;;;333.50;2124.80;;;;;;5087528;28;20028;-69
2021/04/22 05:43:00;;;;;;;27.30;15.90;;;333.40;2099.20;;;;;;5086596;28;20499;-69
2021/04/22 05:45:27;;;;;;;24.75;15.73;;;358.50;2022.40;;;;;;5089205;28;20028;-69
2021/04/22 05:47:54;;;;;;;26.08;15.15;;;358.90;1996.80;;;;;;5086958;28;20016;-70
2021/04/22 05:50:20;;;;;;;30.63;18.45;;;359.00;1945.60;;;;;;5088864;28;20057;-69
2021/04/22 05:52:47;;;;;;;27.75;16.20;;;358.60;1996.80;;;;;;5086649;28;20052;-69
2021/04/22 05:55:13;;;;;;;20.50;14.77;;;359.10;1945.60;;;;;;5088680;28;20055;-68
2021/04/22 05:57:40;;;;;;;25.48;16.88;;;384.10;1894.40;;;;;;5061437;28;20031;-69
2021/04/22 06:00:09;;;;;;;20.17;14.77;;;359.20;1894.40;;;;;;5086912;28;20020;-70
2021/04/22 06:02:35;;;;;;;18.58;13.40;;;384.40;1843.20;;;;;;5086557;28;20504;-71
2021/04/22 06:05:01;;;;;;;16.05;12.80;;;409.90;1817.60;;;;;;5086285;28;20051;-67
2021/04/22 06:07:27;;;;;;;14.38;11.68;;;435.70;1664.00;;;;;;5088718;28;20027;-68
2021/04/22 06:09:52;;;;;;;16.65;12.25;;;436.00;1612.80;;;;;;5086325;28;20136;-67
2021/04/22 06:12:18;;;;;;;16.08;13.20;;;435.30;1638.40;;;;;;5088832;28;20456;-71
2021/04/22 06:14:44;;;;;;;15.77;13.02;;;409.80;1715.20;;;;;;5087718;28;20028;-68
2021/04/22 06:17:10;;;;;;;15.90;12.20;;;435.30;1664.00;;;;;;5089749;28;20043;-69
2021/04/22 06:19:36;;;;;;;14.77;12.00;;;435.60;1638.40;;;;;;5090786;28;20434;-67
2021/04/22 06:22:02;;;;;;;15.70;11.77;;;436.10;1587.20;;;;;;5091428;28;20023;-67
2021/04/22 06:24:28;;;;;;;17.70;13.13;;;461.10;1587.20;;;;;;5091312;28;20039;-68
2021/04/22 06:26:55;;;;;;;14.30;11.10;;;461.60;1536.00;;;;;;5091205;28;20020;-68
2021/04/22 06:29:21;;;;;;;16.98;13.32;;;486.70;1510.40;;;;;;5090834;28;20028;-67
2021/04/22 06:31:47;;;;;;;13.57;11.30;;;486.50;1510.40;;;;;;5091169;28;20500;-68
2021/04/22 06:34:14;;;;;;;19.38;14.68;;;461.50;1536.00;;;;;;5090959;28;20415;-68
2021/04/22 06:36:41;;;;;;;15.32;12.43;;;461.70;1536.00;;;;;;5091354;28;20028;-68
2021/04/22 06:39:07;;;;;;;14.30;11.52;;;512.20;1459.20;;;;;;5087756;28;20098;-68
2021/04/22 06:41:34;;;;;;;14.48;11.88;;;487.30;1433.60;;;;;;5090300;28;20028;-68
2021/04/22 06:44:00;;;;;;;17.30;12.07;;;537.60;1408.00;;;;;;5091054;28;20032;-69
2021/04/22 06:46:26;;;;;;;13.18;10.73;;;538.10;1382.40;;;;;;5090775;28;20016;-68
2021/04/22 06:48:52;;;;;;;12.20;9.93;;;537.80;1408.00;;;;;;5090544;28;20031;-69
2021/04/22 06:51:18;;;;;;;12.48;10.13;;;537.80;1356.80;;;;;;5090649;28;20084;-68
2021/04/22 06:53:44;;;;;;;12.45;10.15;;;537.80;1356.80;;;;;;5090828;28;20099;-68
2021/04/22 06:56:09;;;;;;;13.75;10.57;;;537.70;1356.80;;;;;;5056044;28;20111;-69
2021/04/22 06:58:35;;;;;;;11.00;9.30;;;537.90;1356.80;;;;;;5090416;28;20050;-69
2021/04/22 07:01:01;;;;;;;14.27;10.93;;;538.10;1331.20;;;;;;5088489;28;20039;-68
2021/04/22 07:03:27;;;;;;;11.10;9.68;;;538.00;1356.80;;;;;;5088931;28;20032;-69
2021/04/22 07:05:52;;;;;;;12.65;10.02;;;563.30;1356.80;;;;;;5092956;28;20035;-68
2021/04/22 07:08:18;;;;;;;11.50;9.70;;;563.50;1331.20;;;;;;5066579;28;20078;-68
2021/04/22 07:10:44;;;;;;;12.65;10.55;;;563.90;1305.60;;;;;;5081387;28;20488;-69
2021/04/22 07:13:11;;;;;;;11.85;9.07;;;588.80;1305.60;;;;;;5078860;28;20413;-68
2021/04/22 07:15:37;;;;;;;11.60;10.35;;;614.40;1228.80;;;;;;5084373;28;20491;-68
2021/04/22 07:18:06;;;;;;;11.43;10.05;;;564.10;1254.40;;;;;;5077085;28;20424;-68
2021/04/22 07:20:31;;;;;;;14.60;10.38;;;589.60;1228.80;;;;;;5094157;28;20285;-69
2021/04/22 07:22:59;;;;;;;13.10;9.98;;;640.20;1177.60;;;;;;5086294;28;20035;-71
2021/04/22 07:25:27;;;;;;;16.45;11.77;;;666.10;1177.60;;;;;;5058783;28;20025;-69
2021/04/22 07:27:53;;;;;;;17.63;12.38;;;640.80;1100.80;;;;;;5082959;28;20496;-70
2021/04/22 07:30:20;;;;;;;10.85;8.60;;;640.70;1100.80;;;;;;5068133;28;20037;-69
2021/04/22 07:32:46;;;;;;;14.90;10.23;;;615.20;1152.00;;;;;;5076536;28;20039;-69
2021/04/22 07:35:15;;;;;;;14.75;10.13;;;614.60;1203.20;;;;;;5077069;28;20381;-71
2021/04/22 07:37:40;;;;;;;15.13;10.80;;;589.50;1228.80;;;;;;5078208;28;20059;-71
2021/04/22 07:40:08;;;;;;;13.75;10.82;;;614.50;1203.20;;;;;;5077363;28;20024;-72
2021/04/22 07:42:34;;;;;;;13.15;9.48;;;614.60;1203.20;;;;;;5076852;28;20591;-71
2021/04/22 07:45:01;;;;;;;12.25;9.38;;;615.10;1177.60;;;;;;5078917;28;20029;-71
2021/04/22 07:47:26;;;;;;;12.63;9.73;;;640.00;1152.00;;;;;;5064348;28;20028;-70
2021/04/22 07:49:52;;;;;;;12.20;9.13;;;640.50;1152.00;;;;;;5083084;28;20061;-69
2021/04/22 07:52:20;;;;;;;12.63;9.60;;;666.00;1100.80;;;;;;5084739;28;20052;-70
2021/04/22 07:54:46;;;;;;;15.23;12.27;;;640.50;1100.80;;;;;;5090277;28;20012;-70
2021/04/22 07:57:11;;;;;;;12.50;10.38;;;640.00;1126.40;;;;;;5092365;28;20055;-70
2021/04/22 07:59:37;;;;;;;11.05;8.50;;;640.70;1100.80;;;;;;5090916;28;20085;-70
2021/04/22 08:02:07;;;;;;;11.73;9.18;;;640.00;1126.40;;;;;;5088959;28;20038;-70
2021/04/22 08:04:33;;;;;;;9.55;7.50;;;691.20;1075.20;;;;;;5091845;28;20186;-70
2021/04/22 08:06:58;;;;;;;9.00;7.03;;;666.30;1075.20;;;;;;5090597;28;20499;-73
2021/04/22 08:09:24;;;;;;;9.98;7.13;;;691.70;1049.60;;;;;;5091565;28;20067;-71
2021/04/22 08:11:50;;;;;;;12.77;7.28;;;614.90;1100.80;;;;;;5090539;28;20055;-69
2021/04/22 08:14:15;;;;;;;8.45;6.38;;;614.80;1152.00;;;;;;5093227;28;20445;-69
2021/04/22 08:16:44;;;;;;;9.57;6.45;;;589.00;1203.20;;;;;;5092755;28;20031;-68
2021/04/22 08:19:10;;;;;;;9.93;6.88;;;589.20;1203.20;;;;;;5094747;28;20020;-70
2021/04/22 08:21:35;;;;;;;9.40;7.18;;;589.10;1203.20;;;;;;5093761;28;20368;-70
2021/04/22 08:24:02;;;;;;;8.27;5.78;;;615.10;1152.00;;;;;;5093379;28;20022;-70
2021/04/22 08:26:30;;;;;;;8.55;5.60;;;666.20;1075.20;;;;;;5093417;28;20031;-70
2021/04/22 08:28:56;;;;;;;8.95;5.93;;;717.20;1024.00;;;;;;5078430;28;20385;-68
2021/04/22 08:31:25;;;;;;;7.68;5.95;;;768.00;972.80;;;;;;5063471;28;20028;-70
2021/04/22 08:33:53;;;;;;;7.53;6.45;;;768.90;947.20;;;;;;5056979;28;20021;-73
2021/04/22 08:36:21;;;;;;;8.10;6.03;;;742.50;998.40;;;;;;5068699;28;20025;-72
2021/04/22 08:38:48;;;;;;;6.78;5.38;;;717.70;972.80;;;;;;5068157;28;20048;-71
2021/04/22 08:41:14;;;;;;;8.38;5.93;;;691.80;947.20;;;;;;5072004;28;20036;-72
2021/04/22 08:43:40;;;;;;;7.35;5.35;;;665.60;1049.60;;;;;;5053954;28;20033;-69
2021/04/22 08:46:07;;;;;;;7.47;5.28;;;665.60;1075.20;;;;;;5059531;28;20109;-71
2021/04/22 08:48:34;;;;;;;6.78;4.45;;;666.30;1049.60;;;;;;5070547;28;20115;-71
2021/04/22 08:51:00;;;;;;;6.57;4.68;;;640.70;998.40;;;;;;5060241;28;20045;-71
2021/04/22 08:53:31;;;;;;;7.25;5.18;;;614.70;1100.80;;;;;;5071624;28;20180;-71
2021/04/22 08:55:58;;;;;;;8.48;5.35;;;589.10;1152.00;;;;;;5070526;28;20046;-71
2021/04/22 08:58:24;;;;;;;6.07;4.30;;;589.30;1152.00;;;;;;5070242;28;20481;-69
2021/04/22 09:00:53;;;;;;;7.47;5.35;;;614.50;1100.80;;;;;;5069835;28;20031;-69
2021/04/22 09:03:19;;;;;;;8.38;5.53;;;589.50;1126.40;;;;;;5067928;28;20477;-69
2021/04/22 09:05:46;;;;;;;6.63;4.90;;;614.90;1075.20;;;;;;5063757;28;20024;-74
2021/04/22 09:08:12;;;;;;;9.45;7.20;;;615.10;1126.40;;;;;;5061426;28;20485;-73
2021/04/22 09:10:38;;;;;;;9.77;6.10;;;615.30;1075.20;;;;;;5057028;28;20033;-70
2021/04/22 09:13:15;;;;;;;8.65;3.80;;;640.10;1075.20;;;;;;5061394;28;20021;-68
2021/04/22 09:15:43;;;;;;;5.60;3.92;;;640.10;1024.00;;;;;;5058273;28;20099;-70
2021/04/22 09:18:13;;;;;;;5.38;3.97;;;615.10;1075.20;;;;;;5056702;28;20486;-69
2021/04/22 09:20:50;;;;;;;5.82;4.20;;;615.10;1049.60;;;;;;5056873;28;20025;-67
2021/04/22 09:23:28;;;;;;;5.53;4.10;;;614.40;1100.80;;;;;;5064461;28;20024;-68
2021/04/22 09:26:07;;;;;;;6.70;3.97;;;614.60;1075.20;;;;;;5068443;28;20024;-69
2021/04/22 09:28:40;;;;;;;5.70;3.92;;;589.70;1100.80;;;;;;5063391;28;20036;-69
2021/04/22 09:31:09;;;;;;;5.13;3.60;;;589.70;1100.80;;;;;;5056006;28;20128;-69
2021/04/22 09:33:37;;;;;;;5.32;3.90;;;589.30;1049.60;;;;;;5056046;28;20385;-69
2021/04/22 09:36:12;;;;;;;5.40;3.60;;;589.10;1100.80;;;;;;5054777;28;20059;-73
2021/04/22 09:38:40;;;;;;;5.32;3.80;;;589.00;1049.60;;;;;;5033954;28;20033;-72
2021/04/22 09:41:14;;;;;;;5.82;4.47;;;589.20;1075.20;;;;;;5052354;28;20436;-70
2021/04/22 09:43:41;;;;;;;6.78;4.55;;;589.30;1126.40;;;;;;5050955;28;20079;-69
2021/04/22 09:46:21;;;;;;;5.35;3.85;;;589.40;1126.40;;;;;;5059992;28;20086;-69
2021/04/22 09:48:47;;;;;;;7.57;5.00;;;588.90;1075.20;;;;;;5069984;28;20719;-68
2021/04/22 09:51:31;;;;;;;6.70;4.93;;;588.80;1100.80;;;;;;5067161;28;20048;-69
2021/04/22 09:54:21;;;;;;;5.38;3.53;;;589.20;1049.60;;;;;;5069487;28;20496;-69
2021/04/22 09:56:50;;;;;;;5.07;3.33;;;614.40;1024.00;;;;;;5073711;28;20084;-70
2021/04/22 09:59:18;;;;;;;7.68;4.53;;;589.70;1024.00;;;;;;5064675;28;20040;-69
2021/04/22 10:02:05;;;;;;;6.93;3.63;;;589.30;1049.60;;;;;;5054485;28;20083;-70
2021/04/22 10:04:40;;;;;;;4.32;2.95;;;588.90;1075.20;;;;;;5050413;28;20167;-69
2021/04/22 10:07:19;;;;;;;5.93;3.78;;;589.20;1049.60;;;;;;5051588;28;20155;-70
2021/04/22 10:09:45;;;;;;;6.05;3.55;;;614.60;998.40;;;;;;5049856;28;20029;-69
2021/04/22 10:12:32;;;;;;;7.40;3.80;;;614.80;1024.00;;;;;;5052471;28;20154;-70
2021/04/22 10:15:15;;;;;;;4.97;3.40;;;614.70;1024.00;;;;;;5052320;28;20017;-69
2021/04/22 10:17:41;;;;;;;4.18;3.28;;;614.60;1024.00;;;;;;5058319;28;20549;-69
2021/04/22 10:20:10;;;;;;;4.68;3.10;;;614.90;998.40;;;;;;5052611;28;20025;-72
2021/04/22 10:22:38;;;;;;;5.68;3.15;;;615.20;998.40;;;;;;5055792;28;20109;-68
2021/04/22 10:25:11;;;;;;;4.40;3.10;;;614.90;998.40;;;;;;5057532;28;20121;-68
2021/04/22 10:27:37;;;;;;;4.40;3.20;;;614.80;998.40;;;;;;5060120;28;20021;-69
2021/04/22 10:30:07;;;;;;;4.45;2.90;;;615.00;1024.00;;;;;;5069896;28;20497;-70
2021/04/22 10:32:33;;;;;;;8.18;4.75;;;614.90;998.40;;;;;;5071361;28;20024;-68
2021/04/22 10:34:59;;;;;;;4.45;2.90;;;614.60;998.40;;;;;;5072372;28;20025;-68
2021/04/22 10:37:25;;;;;;;4.18;2.80;;;614.50;1024.00;;;;;;5070086;28;20629;-69
2021/04/22 10:39:56;;;;;;;4.78;3.15;;;614.90;1024.00;;;;;;5072039;28;20162;-71
2021/04/22 10:42:22;;;;;;;;;;;614.80;1049.60;;;;;;5074492;28;20036;-68
2021/04/22 10:44:50;;;;;;;4.40;3.10;;;588.80;1024.00;;;;;;5076350;28;19908;-70
2021/04/22 10:47:17;;;;;;;6.28;4.78;;;589.40;998.40;;;;;;5074595;28;20236;-69
2021/04/22 10:49:43;;;;;;;5.65;3.92;;;589.60;972.80;;;;;;5077021;28;20515;-69
2021/04/22 10:52:11;;;;;;;5.97;4.97;;;589.70;972.80;;;;;;5074305;28;20137;-69
2021/04/22 10:54:40;;;;;;;5.00;3.58;;;589.60;972.80;;;;;;5075913;28;20039;-69
2021/04/22 10:57:09;;;;;;;4.38;2.80;;;614.40;972.80;;;;;;5074968;28;20401;-69
2021/04/22 10:59:35;;;;;;;4.25;2.50;;;614.60;972.80;;;;;;5075132;28;20028;-69
2021/04/22 11:02:19;;;;;;;5.15;2.60;;;640.10;972.80;;;;;;5076158;28;20078;-70
2021/04/22 11:04:47;;;;;;;3.83;2.55;;;640.20;947.20;;;;;;5073561;28;20546;-68
2021/04/22 11:07:20;;;;;;;5.20;3.45;;;640.10;947.20;;;;;;5068395;28;20083;-70
2021/04/22 11:09:46;;;;;;;6.53;4.00;;;640.10;972.80;;;;;;5054932;28;20035;-69
2021/04/22 11:12:20;;;;;;;3.67;2.45;;;614.70;972.80;;;;;;5058423;28;20036;-70
2021/04/22 11:14:46;;;;;;;4.13;2.55;;;614.90;972.80;;;;;;5057883;28;20033;-70
2021/04/22 11:17:12;;;;;;;4.50;2.70;;;614.70;972.80;;;;;;5059930;28;20115;-69
2021/04/22 11:19:44;;;;;;;4.05;2.83;;;615.00;972.80;;;;;;5073534;28;20048;-69
2021/04/22 11:22:19;;;;;;;5.63;3.67;;;614.80;972.80;;;;;;5074782;28;20021;-69
2021/04/22 11:24:55;;;;;;;4.63;2.80;;;615.20;972.80;;;;;;5072058;28;20036;-69
2021/04/22 11:27:22;;;;;;;3.47;2.40;;;615.10;972.80;;;;;;5073830;28;20024;-72
2021/04/22 11:29:49;;;;;;;5.28;3.95;;;615.30;972.80;;;;;;5073783;28;20484;-69
2021/04/22 11:32:21;;;;;;;6.20;3.70;;;615.00;972.80;;;;;;5073753;28;20473;-69
2021/04/22 11:34:48;;;;;;;4.85;3.20;;;615.00;998.40;;;;;;5073756;28;20023;-68
2021/04/22 11:37:40;;;;;;;5.75;3.20;;;615.10;998.40;;;;;;5073870;28;20103;-69
2021/04/22 11:40:23;;;;;;;4.28;3.03;;;589.70;972.80;;;;;;5060345;28;20119;-69
2021/04/22 11:42:51;;;;;;;6.80;3.78;;;614.50;1024.00;;;;;;5076990;28;20024;-69
2021/04/22 11:45:27;;;;;;;4.82;3.20;;;589.40;1024.00;;;;;;5081053;28;20021;-69
2021/04/22 11:47:58;;;;;;;5.15;3.15;;;589.00;1024.00;;;;;;5079557;28;20039;-69
2021/04/22 11:50:28;;;;;;;3.63;2.70;;;588.90;1024.00;;;;;;5083543;28;20491;-69
2021/04/22 11:53:04;;;;;;;4.22;2.90;;;564.00;1049.60;;;;;;5074518;28;20044;-69
2021/04/22 11:55:57;;;;;;;6.20;3.40;;;589.20;1024.00;;;;;;5072024;28;20021;-69
2021/04/22 11:58:25;;;;;;;7.22;4.18;;;589.50;1049.60;;;;;;5070090;28;20061;-68
2021/04/22 12:00:55;;;;;;;4.35;2.90;;;614.80;1049.60;;;;;;5064577;28;20036;-72
2021/04/22 12:03:32;;;;;;;4.75;3.20;;;614.90;998.40;;;;;;5065380;28;20509;-71
2021/04/22 12:06:00;;;;;;;4.38;2.90;;;614.50;972.80;;;;;;5064946;28;20047;-69
2021/04/22 12:08:37;;;;;;;4.90;3.40;;;614.70;972.80;;;;;;5068353;28;20055;-68
2021/04/22 12:11:06;;;;;;;4.38;3.00;;;614.60;972.80;;;;;;5065559;28;20021;-69